sensor_id;sensor_type;location;lat;lon;timestamp;temperature;humidity
43673;DHT22;41723;49.326;8.430;2022-12-29T00:00:49;10.80;99.90
43673;DHT22;41723;49.326;8.430;2022-12-29T00:03:14;10.80;99.90
43673;DHT22;41723;49.326;8.430;2022-12-29T00:05:40;10.80;99.90
43673;DHT22;41723;49.326;8.430;2022-12-29T00:08:06;10.80;99.90
43673;DHT22;41723;49.326;8.430;2022-12-29T00:10:31;10.80;99.90
43673;DHT22;41723;49.326;8.430;2022-12-29T00:12:58;10.80;99.90
43673;DHT22;41723;49.326;8.430;2022-12-29T00:15:42;10.80;99.90
43673;DHT22;41723;49.326;8.430;2022-12-29T00:18:08;10.80;99.90
43673;DHT22;41723;49.326;8.430;2022-12-29T00:20:34;10.80;99.90
43673;DHT22;41723;49.326;8.430;2022-12-29T00:23:19;10.80;99.90
43673;DHT22;41723;49.326;8.430;2022-12-29T00:26:03;10.80;99.90
43673;DHT22;41723;49.326;8.430;2022-12-29T00:28:47;10.70;99.90
43673;DHT22;41723;49.326;8.430;2022-12-29T00:31:33;10.80;99.90
43673;DHT22;41723;49.326;8.430;2022-12-29T00:34:17;10.80;99.90
43673;DHT22;41723;49.326;8.430;2022-12-29T00:37:03;10.80;99.90
43673;DHT22;41723;49.326;8.430;2022-12-29T00:39:28;10.80;99.90
43673;DHT22;41723;49.326;8.430;2022-12-29T00:42:13;10.80;99.90
43673;DHT22;41723;49.326;8.430;2022-12-29T00:44:57;10.80;99.90
43673;DHT22;41723;49.326;8.430;2022-12-29T00:47:22;10.80;99.90
43673;DHT22;41723;49.326;8.430;2022-12-29T00:49:48;10.90;99.90
43673;DHT22;41723;49.326;8.430;2022-12-29T00:52:13;11.00;99.90
43673;DHT22;41723;49.326;8.430;2022-12-29T00:54:40;11.00;99.90
43673;DHT22;41723;49.326;8.430;2022-12-29T00:57:06;11.10;99.90
43673;DHT22;41723;49.326;8.430;2022-12-29T00:59:34;11.20;99.90
43673;DHT22;41723;49.326;8.430;2022-12-29T01:02:00;11.40;99.90
43673;DHT22;41723;49.326;8.430;2022-12-29T01:04:27;11.60;99.90
43673;DHT22;41723;49.326;8.430;2022-12-29T01:06:53;11.70;99.90
43673;DHT22;41723;49.326;8.430;2022-12-29T01:09:19;11.70;99.90
43673;DHT22;41723;49.326;8.430;2022-12-29T01:12:04;11.70;99.90
43673;DHT22;41723;49.326;8.430;2022-12-29T01:14:30;11.70;99.90
43673;DHT22;41723;49.326;8.430;2022-12-29T01:16:56;11.70;99.90
43673;DHT22;41723;49.326;8.430;2022-12-29T01:19:22;11.70;99.90
43673;DHT22;41723;49.326;8.430;2022-12-29T01:21:48;11.80;99.90
43673;DHT22;41723;49.326;8.430;2022-12-29T01:24:14;11.80;99.90
43673;DHT22;41723;49.326;8.430;2022-12-29T01:26:40;11.80;99.90
43673;DHT22;41723;49.326;8.430;2022-12-29T01:29:05;11.80;99.90
43673;DHT22;41723;49.326;8.430;2022-12-29T01:31:31;11.90;99.90
43673;DHT22;41723;49.326;8.430;2022-12-29T01:33:56;11.90;99.90
43673;DHT22;41723;49.326;8.430;2022-12-29T01:36:22;11.90;99.90
43673;DHT22;41723;49.326;8.430;2022-12-29T01:38:47;11.90;99.90
43673;DHT22;41723;49.326;8.430;2022-12-29T01:41:14;11.90;99.90
43673;DHT22;41723;49.326;8.430;2022-12-29T01:43:49;12.00;99.90
43673;DHT22;41723;49.326;8.430;2022-12-29T01:46:21;12.00;99.90
43673;DHT22;41723;49.326;8.430;2022-12-29T01:48:50;11.90;99.90
43673;DHT22;41723;49.326;8.430;2022-12-29T01:51:17;11.90;99.90
43673;DHT22;41723;49.326;8.430;2022-12-29T01:53:42;11.80;99.90
43673;DHT22;41723;49.326;8.430;2022-12-29T01:56:09;11.70;99.90
43673;DHT22;41723;49.326;8.430;2022-12-29T01:58:37;11.60;99.90
43673;DHT22;41723;49.326;8.430;2022-12-29T02:01:05;11.50;99.90
43673;DHT22;41723;49.326;8.430;2022-12-29T02:03:31;11.50;99.90
43673;DHT22;41723;49.326;8.430;2022-12-29T02:06:00;11.50;99.90
43673;DHT22;41723;49.326;8.430;2022-12-29T02:08:28;11.50;99.90
43673;DHT22;41723;49.326;8.430;2022-12-29T02:10:55;11.50;99.90
43673;DHT22;41723;49.326;8.430;2022-12-29T02:13:23;11.60;99.90
43673;DHT22;41723;49.326;8.430;2022-12-29T02:28:58;11.80;99.90
43673;DHT22;41723;49.326;8.430;2022-12-29T02:31:31;11.70;99.90
43673;DHT22;41723;49.326;8.430;2022-12-29T02:37:18;11.60;99.90
43673;DHT22;41723;49.326;8.430;2022-12-29T02:42:03;11.70;99.90
43673;DHT22;41723;49.326;8.430;2022-12-29T02:44:43;11.70;99.90
43673;DHT22;41723;49.326;8.430;2022-12-29T02:49:46;11.70;99.90
43673;DHT22;41723;49.326;8.430;2022-12-29T02:52:18;11.80;99.90
43673;DHT22;41723;49.326;8.430;2022-12-29T02:54:47;11.80;99.90
43673;DHT22;41723;49.326;8.430;2022-12-29T02:59:49;11.70;99.90
43673;DHT22;41723;49.326;8.430;2022-12-29T03:07:20;11.70;99.90
43673;DHT22;41723;49.326;8.430;2022-12-29T03:15:30;11.80;99.90
43673;DHT22;41723;49.326;8.430;2022-12-29T03:18:21;11.80;99.90
43673;DHT22;41723;49.326;8.430;2022-12-29T03:20:53;11.80;99.90
43673;DHT22;41723;49.326;8.430;2022-12-29T03:23:21;11.80;99.90
43673;DHT22;41723;49.326;8.430;2022-12-29T03:25:51;11.80;99.90
43673;DHT22;41723;49.326;8.430;2022-12-29T03:28:23;11.90;99.90
43673;DHT22;41723;49.326;8.430;2022-12-29T03:30:50;11.80;99.90
43673;DHT22;41723;49.326;8.430;2022-12-29T03:33:19;11.80;99.90
43673;DHT22;41723;49.326;8.430;2022-12-29T03:35:47;11.80;99.90
43673;DHT22;41723;49.326;8.430;2022-12-29T03:40:40;11.80;99.90
43673;DHT22;41723;49.326;8.430;2022-12-29T03:43:07;11.70;99.90
43673;DHT22;41723;49.326;8.430;2022-12-29T03:45:35;11.70;99.90
43673;DHT22;41723;49.326;8.430;2022-12-29T03:48:00;11.70;99.90
43673;DHT22;41723;49.326;8.430;2022-12-29T03:50:27;11.80;99.90
43673;DHT22;41723;49.326;8.430;2022-12-29T03:52:52;11.80;99.90
43673;DHT22;41723;49.326;8.430;2022-12-29T03:55:18;11.80;99.90
43673;DHT22;41723;49.326;8.430;2022-12-29T03:57:44;11.80;99.90
43673;DHT22;41723;49.326;8.430;2022-12-29T04:00:14;11.80;99.90
43673;DHT22;41723;49.326;8.430;2022-12-29T04:02:47;11.80;99.90
43673;DHT22;41723;49.326;8.430;2022-12-29T04:05:18;11.80;99.90
43673;DHT22;41723;49.326;8.430;2022-12-29T04:07:44;11.90;99.90
43673;DHT22;41723;49.326;8.430;2022-12-29T04:12:38;11.90;99.90
43673;DHT22;41723;49.326;8.430;2022-12-29T04:15:04;12.00;99.90
43673;DHT22;41723;49.326;8.430;2022-12-29T04:17:30;11.90;99.90
43673;DHT22;41723;49.326;8.430;2022-12-29T04:19:55;12.00;99.90
43673;DHT22;41723;49.326;8.430;2022-12-29T04:22:41;12.00;99.90
43673;DHT22;41723;49.326;8.430;2022-12-29T04:25:07;12.00;99.90
43673;DHT22;41723;49.326;8.430;2022-12-29T04:27:33;12.00;99.90
43673;DHT22;41723;49.326;8.430;2022-12-29T04:30:34;12.00;99.90
43673;DHT22;41723;49.326;8.430;2022-12-29T04:33:06;12.00;99.90
43673;DHT22;41723;49.326;8.430;2022-12-29T04:35:32;12.00;99.90
43673;DHT22;41723;49.326;8.430;2022-12-29T04:37:58;12.00;99.90
43673;DHT22;41723;49.326;8.430;2022-12-29T04:40:24;12.10;99.90
43673;DHT22;41723;49.326;8.430;2022-12-29T04:42:50;12.00;99.90
43673;DHT22;41723;49.326;8.430;2022-12-29T04:45:17;12.00;99.90
43673;DHT22;41723;49.326;8.430;2022-12-29T04:47:52;12.10;99.90
43673;DHT22;41723;49.326;8.430;2022-12-29T04:50:41;12.10;99.90
43673;DHT22;41723;49.326;8.430;2022-12-29T04:53:16;12.10;99.90
43673;DHT22;41723;49.326;8.430;2022-12-29T04:55:42;12.00;99.90
43673;DHT22;41723;49.326;8.430;2022-12-29T04:58:08;12.10;99.90
43673;DHT22;41723;49.326;8.430;2022-12-29T05:00:33;12.00;99.90
43673;DHT22;41723;49.326;8.430;2022-12-29T05:02:59;12.00;99.90
43673;DHT22;41723;49.326;8.430;2022-12-29T05:05:25;12.00;99.90
43673;DHT22;41723;49.326;8.430;2022-12-29T05:07:51;12.00;99.90
43673;DHT22;41723;49.326;8.430;2022-12-29T05:10:17;12.00;99.90
43673;DHT22;41723;49.326;8.430;2022-12-29T05:12:42;11.90;99.90
43673;DHT22;41723;49.326;8.430;2022-12-29T05:15:09;11.90;99.90
43673;DHT22;41723;49.326;8.430;2022-12-29T05:17:35;11.90;99.90
43673;DHT22;41723;49.326;8.430;2022-12-29T05:20:00;12.00;99.90
43673;DHT22;41723;49.326;8.430;2022-12-29T05:22:26;12.00;99.90
43673;DHT22;41723;49.326;8.430;2022-12-29T05:24:53;11.90;99.90
43673;DHT22;41723;49.326;8.430;2022-12-29T05:27:19;11.90;99.90
43673;DHT22;41723;49.326;8.430;2022-12-29T05:29:57;11.90;99.90
43673;DHT22;41723;49.326;8.430;2022-12-29T05:32:23;11.90;99.90
43673;DHT22;41723;49.326;8.430;2022-12-29T05:34:48;11.90;99.90
43673;DHT22;41723;49.326;8.430;2022-12-29T05:37:16;11.90;99.90
43673;DHT22;41723;49.326;8.430;2022-12-29T05:39:42;12.00;99.90
43673;DHT22;41723;49.326;8.430;2022-12-29T05:42:08;11.90;99.90
43673;DHT22;41723;49.326;8.430;2022-12-29T05:44:52;11.90;99.90
43673;DHT22;41723;49.326;8.430;2022-12-29T05:47:42;11.90;99.90
43673;DHT22;41723;49.326;8.430;2022-12-29T05:50:27;11.80;99.90
43673;DHT22;41723;49.326;8.430;2022-12-29T05:53:10;11.80;99.90
43673;DHT22;41723;49.326;8.430;2022-12-29T05:55:37;11.80;99.90
43673;DHT22;41723;49.326;8.430;2022-12-29T05:58:03;11.80;99.90
43673;DHT22;41723;49.326;8.430;2022-12-29T06:00:28;11.90;99.90
43673;DHT22;41723;49.326;8.430;2022-12-29T06:02:54;11.80;99.90
43673;DHT22;41723;49.326;8.430;2022-12-29T06:05:20;11.90;99.90
43673;DHT22;41723;49.326;8.430;2022-12-29T06:07:45;11.80;99.90
43673;DHT22;41723;49.326;8.430;2022-12-29T06:10:14;11.90;99.90
43673;DHT22;41723;49.326;8.430;2022-12-29T06:12:56;11.90;99.90
43673;DHT22;41723;49.326;8.430;2022-12-29T06:15:22;11.90;99.90
43673;DHT22;41723;49.326;8.430;2022-12-29T06:17:49;11.90;99.90
43673;DHT22;41723;49.326;8.430;2022-12-29T06:20:15;11.90;99.90
43673;DHT22;41723;49.326;8.430;2022-12-29T06:22:41;11.90;99.90
43673;DHT22;41723;49.326;8.430;2022-12-29T06:25:07;11.90;99.90
43673;DHT22;41723;49.326;8.430;2022-12-29T06:27:34;11.90;99.90
43673;DHT22;41723;49.326;8.430;2022-12-29T06:29:59;12.00;99.90
43673;DHT22;41723;49.326;8.430;2022-12-29T06:32:25;12.00;99.90
43673;DHT22;41723;49.326;8.430;2022-12-29T06:34:53;12.10;99.90
43673;DHT22;41723;49.326;8.430;2022-12-29T06:37:18;12.00;99.90
43673;DHT22;41723;49.326;8.430;2022-12-29T06:39:45;12.00;99.90
43673;DHT22;41723;49.326;8.430;2022-12-29T06:42:13;12.00;99.90
43673;DHT22;41723;49.326;8.430;2022-12-29T06:44:38;12.10;99.90
43673;DHT22;41723;49.326;8.430;2022-12-29T06:47:08;12.00;99.90
43673;DHT22;41723;49.326;8.430;2022-12-29T06:49:34;12.10;99.90
43673;DHT22;41723;49.326;8.430;2022-12-29T06:52:00;12.00;99.90
43673;DHT22;41723;49.326;8.430;2022-12-29T06:54:28;12.10;99.90
43673;DHT22;41723;49.326;8.430;2022-12-29T06:56:54;12.00;99.90
43673;DHT22;41723;49.326;8.430;2022-12-29T06:59:19;12.10;99.90
43673;DHT22;41723;49.326;8.430;2022-12-29T07:01:45;12.10;99.90
43673;DHT22;41723;49.326;8.430;2022-12-29T07:04:11;12.10;99.90
43673;DHT22;41723;49.326;8.430;2022-12-29T07:06:36;12.10;99.90
43673;DHT22;41723;49.326;8.430;2022-12-29T07:09:02;12.10;99.90
43673;DHT22;41723;49.326;8.430;2022-12-29T07:11:28;12.10;99.90
43673;DHT22;41723;49.326;8.430;2022-12-29T07:13:53;12.10;99.90
43673;DHT22;41723;49.326;8.430;2022-12-29T07:16:19;12.10;99.90
43673;DHT22;41723;49.326;8.430;2022-12-29T07:18:45;12.10;99.90
43673;DHT22;41723;49.326;8.430;2022-12-29T07:21:10;12.10;99.90
43673;DHT22;41723;49.326;8.430;2022-12-29T07:23:37;12.20;99.90
43673;DHT22;41723;49.326;8.430;2022-12-29T07:26:04;12.10;99.90
43673;DHT22;41723;49.326;8.430;2022-12-29T07:28:30;12.20;99.90
43673;DHT22;41723;49.326;8.430;2022-12-29T07:30:56;12.20;99.90
43673;DHT22;41723;49.326;8.430;2022-12-29T07:33:22;12.20;99.90
43673;DHT22;41723;49.326;8.430;2022-12-29T07:35:47;12.20;99.90
43673;DHT22;41723;49.326;8.430;2022-12-29T07:38:13;12.20;99.90
43673;DHT22;41723;49.326;8.430;2022-12-29T07:40:38;12.20;99.90
43673;DHT22;41723;49.326;8.430;2022-12-29T07:43:04;12.20;99.90
43673;DHT22;41723;49.326;8.430;2022-12-29T07:45:36;12.20;99.90
43673;DHT22;41723;49.326;8.430;2022-12-29T07:48:07;12.20;99.90
43673;DHT22;41723;49.326;8.430;2022-12-29T07:50:34;12.20;99.90
43673;DHT22;41723;49.326;8.430;2022-12-29T07:52:59;12.20;99.90
43673;DHT22;41723;49.326;8.430;2022-12-29T07:55:25;12.20;99.90
43673;DHT22;41723;49.326;8.430;2022-12-29T07:57:52;12.20;99.90
43673;DHT22;41723;49.326;8.430;2022-12-29T08:00:19;12.30;99.90
43673;DHT22;41723;49.326;8.430;2022-12-29T08:02:45;12.30;99.90
43673;DHT22;41723;49.326;8.430;2022-12-29T08:05:10;12.30;99.90
43673;DHT22;41723;49.326;8.430;2022-12-29T08:07:36;12.20;99.90
43673;DHT22;41723;49.326;8.430;2022-12-29T08:10:02;12.20;99.90
43673;DHT22;41723;49.326;8.430;2022-12-29T08:12:27;12.30;99.90
43673;DHT22;41723;49.326;8.430;2022-12-29T08:14:53;12.30;99.90
43673;DHT22;41723;49.326;8.430;2022-12-29T08:17:18;12.30;99.90
43673;DHT22;41723;49.326;8.430;2022-12-29T08:19:44;12.30;99.90
43673;DHT22;41723;49.326;8.430;2022-12-29T08:22:10;12.30;99.90
43673;DHT22;41723;49.326;8.430;2022-12-29T08:24:35;12.20;99.90
43673;DHT22;41723;49.326;8.430;2022-12-29T08:27:01;12.30;99.90
43673;DHT22;41723;49.326;8.430;2022-12-29T08:29:27;12.30;99.90
43673;DHT22;41723;49.326;8.430;2022-12-29T08:31:52;12.40;99.90
43673;DHT22;41723;49.326;8.430;2022-12-29T08:34:18;12.30;99.90
43673;DHT22;41723;49.326;8.430;2022-12-29T08:36:44;12.40;99.90
43673;DHT22;41723;49.326;8.430;2022-12-29T08:39:09;12.40;99.90
43673;DHT22;41723;49.326;8.430;2022-12-29T08:41:35;12.40;99.90
43673;DHT22;41723;49.326;8.430;2022-12-29T08:44:00;12.50;99.90
43673;DHT22;41723;49.326;8.430;2022-12-29T08:46:26;12.60;99.90
43673;DHT22;41723;49.326;8.430;2022-12-29T08:48:52;12.60;99.90
43673;DHT22;41723;49.326;8.430;2022-12-29T08:51:18;12.60;99.90
43673;DHT22;41723;49.326;8.430;2022-12-29T08:53:43;12.60;99.90
43673;DHT22;41723;49.326;8.430;2022-12-29T08:56:09;12.60;99.90
43673;DHT22;41723;49.326;8.430;2022-12-29T08:58:44;12.70;99.90
43673;DHT22;41723;49.326;8.430;2022-12-29T09:01:10;12.70;99.90
43673;DHT22;41723;49.326;8.430;2022-12-29T09:03:36;12.70;99.90
43673;DHT22;41723;49.326;8.430;2022-12-29T09:06:02;12.70;99.90
43673;DHT22;41723;49.326;8.430;2022-12-29T09:08:27;12.80;99.90
43673;DHT22;41723;49.326;8.430;2022-12-29T09:10:53;12.80;99.90
43673;DHT22;41723;49.326;8.430;2022-12-29T09:13:19;12.80;99.90
43673;DHT22;41723;49.326;8.430;2022-12-29T09:15:44;12.80;99.90
43673;DHT22;41723;49.326;8.430;2022-12-29T09:18:10;12.90;99.90
43673;DHT22;41723;49.326;8.430;2022-12-29T09:20:36;12.90;99.90
43673;DHT22;41723;49.326;8.430;2022-12-29T09:23:02;12.90;99.90
43673;DHT22;41723;49.326;8.430;2022-12-29T09:25:28;12.90;99.90
43673;DHT22;41723;49.326;8.430;2022-12-29T09:27:53;12.90;99.90
43673;DHT22;41723;49.326;8.430;2022-12-29T09:30:20;12.90;99.90
43673;DHT22;41723;49.326;8.430;2022-12-29T09:32:46;12.90;99.90
43673;DHT22;41723;49.326;8.430;2022-12-29T09:35:12;12.90;99.90
43673;DHT22;41723;49.326;8.430;2022-12-29T09:37:38;12.90;99.90
43673;DHT22;41723;49.326;8.430;2022-12-29T09:40:04;12.90;99.90
43673;DHT22;41723;49.326;8.430;2022-12-29T09:42:51;12.90;99.90
43673;DHT22;41723;49.326;8.430;2022-12-29T09:45:36;12.90;99.90
43673;DHT22;41723;49.326;8.430;2022-12-29T09:48:06;12.90;99.90
43673;DHT22;41723;49.326;8.430;2022-12-29T09:50:37;12.80;99.90
43673;DHT22;41723;49.326;8.430;2022-12-29T09:53:05;12.80;99.90
43673;DHT22;41723;49.326;8.430;2022-12-29T09:55:44;12.90;99.90
43673;DHT22;41723;49.326;8.430;2022-12-29T10:01:00;12.80;99.90
43673;DHT22;41723;49.326;8.430;2022-12-29T10:03:32;12.80;99.90
43673;DHT22;41723;49.326;8.430;2022-12-29T10:14:03;12.90;99.90
43673;DHT22;41723;49.326;8.430;2022-12-29T10:16:37;12.90;99.90
43673;DHT22;41723;49.326;8.430;2022-12-29T10:24:21;13.00;99.90
43673;DHT22;41723;49.326;8.430;2022-12-29T10:26:48;13.00;99.90
43673;DHT22;41723;49.326;8.430;2022-12-29T10:29:20;13.00;99.90
43673;DHT22;41723;49.326;8.430;2022-12-29T10:31:53;13.00;99.90
43673;DHT22;41723;49.326;8.430;2022-12-29T10:34:30;13.00;99.90
43673;DHT22;41723;49.326;8.430;2022-12-29T10:39:46;13.00;99.90
43673;DHT22;41723;49.326;8.430;2022-12-29T10:44:47;12.90;99.90
43673;DHT22;41723;49.326;8.430;2022-12-29T10:47:15;13.00;99.90
43673;DHT22;41723;49.326;8.430;2022-12-29T10:49:42;12.90;99.90
43673;DHT22;41723;49.326;8.430;2022-12-29T10:52:08;12.90;99.90
43673;DHT22;41723;49.326;8.430;2022-12-29T10:57:32;13.00;99.90
43673;DHT22;41723;49.326;8.430;2022-12-29T10:59:55;13.00;99.90
43673;DHT22;41723;49.326;8.430;2022-12-29T11:05:23;13.00;99.90
43673;DHT22;41723;49.326;8.430;2022-12-29T11:07:54;13.10;99.90
43673;DHT22;41723;49.326;8.430;2022-12-29T11:13:00;13.20;99.90
43673;DHT22;41723;49.326;8.430;2022-12-29T11:15:26;13.20;99.90
43673;DHT22;41723;49.326;8.430;2022-12-29T11:17:53;13.20;99.90
43673;DHT22;41723;49.326;8.430;2022-12-29T11:20:29;13.30;99.90
43673;DHT22;41723;49.326;8.430;2022-12-29T11:22:56;13.30;99.90
43673;DHT22;41723;49.326;8.430;2022-12-29T11:25:22;13.30;99.90
43673;DHT22;41723;49.326;8.430;2022-12-29T11:28:02;13.20;99.90
43673;DHT22;41723;49.326;8.430;2022-12-29T11:30:29;13.20;99.90
43673;DHT22;41723;49.326;8.430;2022-12-29T11:32:55;13.10;99.90
43673;DHT22;41723;49.326;8.430;2022-12-29T11:37:59;13.10;99.90
43673;DHT22;41723;49.326;8.430;2022-12-29T11:40:25;13.10;99.90
43673;DHT22;41723;49.326;8.430;2022-12-29T11:42:52;13.20;99.90
43673;DHT22;41723;49.326;8.430;2022-12-29T11:47:52;13.00;99.90
43673;DHT22;41723;49.326;8.430;2022-12-29T11:50:20;13.00;99.90
43673;DHT22;41723;49.326;8.430;2022-12-29T11:52:46;12.90;99.90
43673;DHT22;41723;49.326;8.430;2022-12-29T11:55:18;12.80;99.90
43673;DHT22;41723;49.326;8.430;2022-12-29T11:57:44;12.80;99.90
43673;DHT22;41723;49.326;8.430;2022-12-29T12:00:14;12.70;99.90
43673;DHT22;41723;49.326;8.430;2022-12-29T12:02:42;12.70;99.90
43673;DHT22;41723;49.326;8.430;2022-12-29T12:05:14;12.70;99.90
43673;DHT22;41723;49.326;8.430;2022-12-29T12:07:45;12.70;99.90
43673;DHT22;41723;49.326;8.430;2022-12-29T12:10:15;12.60;99.90
43673;DHT22;41723;49.326;8.430;2022-12-29T12:12:47;12.70;99.90
43673;DHT22;41723;49.326;8.430;2022-12-29T12:15:16;12.70;99.90
43673;DHT22;41723;49.326;8.430;2022-12-29T12:17:59;12.70;99.90
43673;DHT22;41723;49.326;8.430;2022-12-29T12:20:27;12.70;99.90
43673;DHT22;41723;49.326;8.430;2022-12-29T12:25:28;12.70;99.90
43673;DHT22;41723;49.326;8.430;2022-12-29T12:27:57;12.80;99.90
43673;DHT22;41723;49.326;8.430;2022-12-29T12:30:25;12.80;99.90
43673;DHT22;41723;49.326;8.430;2022-12-29T12:51:02;12.60;99.90
43673;DHT22;41723;49.326;8.430;2022-12-29T12:58:59;12.00;99.90
43673;DHT22;41723;49.326;8.430;2022-12-29T13:06:31;11.90;99.90
43673;DHT22;41723;49.326;8.430;2022-12-29T13:16:48;11.90;99.90
43673;DHT22;41723;49.326;8.430;2022-12-29T13:24:34;11.90;99.90
43673;DHT22;41723;49.326;8.430;2022-12-29T13:29:46;11.90;99.90
43673;DHT22;41723;49.326;8.430;2022-12-29T13:35:01;11.80;99.90
43673;DHT22;41723;49.326;8.430;2022-12-29T13:37:30;11.80;99.90
43673;DHT22;41723;49.326;8.430;2022-12-29T13:40:02;11.90;99.90
43673;DHT22;41723;49.326;8.430;2022-12-29T13:42:28;11.90;99.90
43673;DHT22;41723;49.326;8.430;2022-12-29T13:44:57;11.90;99.90
43673;DHT22;41723;49.326;8.430;2022-12-29T13:49:53;11.90;99.90
43673;DHT22;41723;49.326;8.430;2022-12-29T13:52:22;11.90;99.90
43673;DHT22;41723;49.326;8.430;2022-12-29T14:00:12;11.90;99.90
43673;DHT22;41723;49.326;8.430;2022-12-29T14:07:42;12.00;99.90
43673;DHT22;41723;49.326;8.430;2022-12-29T14:10:25;12.00;99.90
43673;DHT22;41723;49.326;8.430;2022-12-29T14:12:53;12.00;99.90
43673;DHT22;41723;49.326;8.430;2022-12-29T14:15:24;12.00;99.90
43673;DHT22;41723;49.326;8.430;2022-12-29T14:18:33;12.10;99.90
43673;DHT22;41723;49.326;8.430;2022-12-29T14:20:58;12.00;99.90
43673;DHT22;41723;49.326;8.430;2022-12-29T14:23:29;12.00;99.90
43673;DHT22;41723;49.326;8.430;2022-12-29T14:28:29;12.00;99.90
43673;DHT22;41723;49.326;8.430;2022-12-29T14:31:02;12.00;99.90
43673;DHT22;41723;49.326;8.430;2022-12-29T14:33:30;11.90;99.90
43673;DHT22;41723;49.326;8.430;2022-12-29T14:35:56;11.80;99.90
43673;DHT22;41723;49.326;8.430;2022-12-29T14:38:23;11.60;99.90
43673;DHT22;41723;49.326;8.430;2022-12-29T14:40:49;11.40;99.90
43673;DHT22;41723;49.326;8.430;2022-12-29T14:43:22;11.30;99.90
43673;DHT22;41723;49.326;8.430;2022-12-29T14:45:57;11.30;99.90
43673;DHT22;41723;49.326;8.430;2022-12-29T14:48:30;11.30;99.90
43673;DHT22;41723;49.326;8.430;2022-12-29T14:50:57;11.20;99.90
43673;DHT22;41723;49.326;8.430;2022-12-29T14:56:09;11.20;99.90
43673;DHT22;41723;49.326;8.430;2022-12-29T14:58:44;11.10;99.90
43673;DHT22;41723;49.326;8.430;2022-12-29T15:01:18;11.10;99.90
43673;DHT22;41723;49.326;8.430;2022-12-29T15:03:44;11.00;99.90
43673;DHT22;41723;49.326;8.430;2022-12-29T15:06:11;11.00;99.90
43673;DHT22;41723;49.326;8.430;2022-12-29T15:11:14;11.00;99.90
43673;DHT22;41723;49.326;8.430;2022-12-29T15:13:41;10.90;99.90
43673;DHT22;41723;49.326;8.430;2022-12-29T15:16:24;10.90;99.90
43673;DHT22;41723;49.326;8.430;2022-12-29T15:18:50;11.00;99.90
43673;DHT22;41723;49.326;8.430;2022-12-29T15:21:16;10.90;99.90
43673;DHT22;41723;49.326;8.430;2022-12-29T15:23:43;10.90;99.90
43673;DHT22;41723;49.326;8.430;2022-12-29T15:26:09;10.90;99.90
43673;DHT22;41723;49.326;8.430;2022-12-29T15:28:39;10.80;99.90
43673;DHT22;41723;49.326;8.430;2022-12-29T15:31:09;10.80;99.90
43673;DHT22;41723;49.326;8.430;2022-12-29T15:33:37;10.80;99.90
43673;DHT22;41723;49.326;8.430;2022-12-29T15:36:03;10.80;99.90
43673;DHT22;41723;49.326;8.430;2022-12-29T15:38:29;10.70;99.90
43673;DHT22;41723;49.326;8.430;2022-12-29T15:41:59;10.70;99.90
43673;DHT22;41723;49.326;8.430;2022-12-29T15:46:33;10.70;99.90
43673;DHT22;41723;49.326;8.430;2022-12-29T15:48:59;10.80;99.90
43673;DHT22;41723;49.326;8.430;2022-12-29T15:51:27;10.80;99.90
43673;DHT22;41723;49.326;8.430;2022-12-29T15:53:54;10.80;99.90
43673;DHT22;41723;49.326;8.430;2022-12-29T15:56:19;10.80;99.90
43673;DHT22;41723;49.326;8.430;2022-12-29T15:58:49;10.80;99.90
43673;DHT22;41723;49.326;8.430;2022-12-29T16:03:44;10.80;99.90
43673;DHT22;41723;49.326;8.430;2022-12-29T16:06:30;10.80;99.90
43673;DHT22;41723;49.326;8.430;2022-12-29T16:08:57;10.90;99.90
43673;DHT22;41723;49.326;8.430;2022-12-29T16:13:52;10.90;99.90
43673;DHT22;41723;49.326;8.430;2022-12-29T16:16:19;11.00;99.90
43673;DHT22;41723;49.326;8.430;2022-12-29T16:18:45;11.00;99.90
43673;DHT22;41723;49.326;8.430;2022-12-29T16:21:27;11.00;99.90
43673;DHT22;41723;49.326;8.430;2022-12-29T16:23:54;11.10;99.90
43673;DHT22;41723;49.326;8.430;2022-12-29T16:26:20;11.10;99.90
43673;DHT22;41723;49.326;8.430;2022-12-29T16:28:48;11.20;99.90
43673;DHT22;41723;49.326;8.430;2022-12-29T16:31:22;11.10;99.90
43673;DHT22;41723;49.326;8.430;2022-12-29T16:33:49;11.20;99.90
43673;DHT22;41723;49.326;8.430;2022-12-29T16:36:26;11.20;99.90
43673;DHT22;41723;49.326;8.430;2022-12-29T16:39:02;11.20;99.90
43673;DHT22;41723;49.326;8.430;2022-12-29T16:41:30;11.20;99.90
43673;DHT22;41723;49.326;8.430;2022-12-29T16:47:25;11.30;99.90
43673;DHT22;41723;49.326;8.430;2022-12-29T16:49:26;11.30;99.90
43673;DHT22;41723;49.326;8.430;2022-12-29T16:51:52;11.30;99.90
43673;DHT22;41723;49.326;8.430;2022-12-29T16:54:30;11.20;99.90
43673;DHT22;41723;49.326;8.430;2022-12-29T16:56:57;11.20;99.90
43673;DHT22;41723;49.326;8.430;2022-12-29T16:59:27;11.20;99.90
43673;DHT22;41723;49.326;8.430;2022-12-29T17:01:56;11.20;99.90
43673;DHT22;41723;49.326;8.430;2022-12-29T17:04:22;11.20;99.90
43673;DHT22;41723;49.326;8.430;2022-12-29T17:06:48;11.20;99.90
43673;DHT22;41723;49.326;8.430;2022-12-29T17:09:20;11.20;99.90
43673;DHT22;41723;49.326;8.430;2022-12-29T17:12:05;11.10;99.90
43673;DHT22;41723;49.326;8.430;2022-12-29T17:14:35;11.20;99.90
43673;DHT22;41723;49.326;8.430;2022-12-29T17:17:05;11.10;99.90
43673;DHT22;41723;49.326;8.430;2022-12-29T17:19:35;11.10;99.90
43673;DHT22;41723;49.326;8.430;2022-12-29T17:22:02;11.10;99.90
43673;DHT22;41723;49.326;8.430;2022-12-29T17:24:29;11.10;99.90
43673;DHT22;41723;49.326;8.430;2022-12-29T17:26:55;11.10;99.90
43673;DHT22;41723;49.326;8.430;2022-12-29T17:29:38;11.10;99.90
43673;DHT22;41723;49.326;8.430;2022-12-29T17:32:05;11.10;99.90
43673;DHT22;41723;49.326;8.430;2022-12-29T17:34:32;11.00;99.90
43673;DHT22;41723;49.326;8.430;2022-12-29T17:36:58;11.00;99.90
43673;DHT22;41723;49.326;8.430;2022-12-29T17:39:23;10.90;99.90
43673;DHT22;41723;49.326;8.430;2022-12-29T17:41:49;10.90;99.90
43673;DHT22;41723;49.326;8.430;2022-12-29T17:44:15;10.90;99.90
43673;DHT22;41723;49.326;8.430;2022-12-29T17:46:41;10.80;99.90
43673;DHT22;41723;49.326;8.430;2022-12-29T17:49:11;10.80;99.90
43673;DHT22;41723;49.326;8.430;2022-12-29T17:51:37;10.70;99.90
43673;DHT22;41723;49.326;8.430;2022-12-29T17:54:02;10.70;99.90
43673;DHT22;41723;49.326;8.430;2022-12-29T17:56:28;10.60;99.90
43673;DHT22;41723;49.326;8.430;2022-12-29T17:58:55;10.60;99.90
43673;DHT22;41723;49.326;8.430;2022-12-29T18:01:20;10.60;99.90
43673;DHT22;41723;49.326;8.430;2022-12-29T18:03:46;10.50;99.90
43673;DHT22;41723;49.326;8.430;2022-12-29T18:06:11;10.50;99.90
43673;DHT22;41723;49.326;8.430;2022-12-29T18:08:38;10.50;99.90
43673;DHT22;41723;49.326;8.430;2022-12-29T18:11:38;10.50;99.90
43673;DHT22;41723;49.326;8.430;2022-12-29T18:13:56;10.50;99.90
43673;DHT22;41723;49.326;8.430;2022-12-29T18:16:21;10.50;99.90